createdAt,value
2018-08-09T00:01:27.748Z,14.73
2018-08-09T00:03:56.177Z,15.10
2018-08-09T00:06:24.554Z,14.20
2018-08-09T00:08:52.953Z,12.93
2018-08-09T00:11:21.334Z,13.60
2018-08-09T00:13:49.751Z,13.97
2018-08-09T00:16:18.123Z,14.60
2018-08-09T00:18:46.513Z,14.30
2018-08-09T00:21:14.886Z,15.60
2018-08-09T00:23:43.296Z,16.60
2018-08-09T00:26:11.667Z,14.83
2018-08-09T00:28:40.047Z,13.23
2018-08-09T00:31:09.025Z,15.57
2018-08-09T00:33:37.417Z,16.83
2018-08-09T00:36:05.785Z,15.27
2018-08-09T00:38:34.176Z,14.97
2018-08-09T00:41:02.547Z,16.90
2018-08-09T00:43:30.942Z,16.83
2018-08-09T00:45:59.307Z,15.30
2018-08-09T00:48:27.699Z,14.60
2018-08-09T00:50:56.073Z,15.43
2018-08-09T00:53:24.471Z,15.80
2018-08-09T00:55:52.843Z,14.70
2018-08-09T00:58:21.233Z,16.90
2018-08-09T01:00:49.603Z,17.47
2018-08-09T01:03:18.007Z,15.80
2018-08-09T01:05:46.383Z,15.00
2018-08-09T01:08:14.785Z,15.30
2018-08-09T01:10:43.154Z,13.97
2018-08-09T01:13:11.554Z,15.20
2018-08-09T01:15:39.937Z,15.10
2018-08-09T01:18:09.492Z,15.97
2018-08-09T01:20:37.886Z,15.40
2018-08-09T01:23:06.253Z,13.67
2018-08-09T01:25:34.845Z,15.10
2018-08-09T01:28:03.245Z,17.23
2018-08-09T01:30:31.631Z,14.00
2018-08-09T01:33:00.172Z,15.10
2018-08-09T01:35:28.577Z,16.60
2018-08-09T01:37:56.949Z,14.50
2018-08-09T01:40:25.333Z,15.30
2018-08-09T01:43:05.094Z,16.80
2018-08-09T01:45:33.489Z,15.17
2018-08-09T01:48:01.866Z,14.90
2018-08-09T01:50:30.271Z,13.63
2018-08-09T01:52:58.637Z,14.77
2018-08-09T01:55:27.034Z,13.13
2018-08-09T01:57:55.408Z,14.40
2018-08-09T02:00:23.801Z,14.17
2018-08-09T02:02:52.196Z,13.63
2018-08-09T02:05:20.598Z,13.63
2018-08-09T02:07:48.979Z,14.67
2018-08-09T02:10:17.374Z,12.70
2018-08-09T02:12:45.779Z,14.13
2018-08-09T02:15:14.175Z,12.70
2018-08-09T02:17:42.550Z,14.17
2018-08-09T02:20:10.958Z,12.93
2018-08-09T02:22:39.341Z,13.50
2018-08-09T02:25:07.738Z,12.23
2018-08-09T02:27:36.150Z,12.80
2018-08-09T02:30:05.661Z,13.37
2018-08-09T02:32:34.040Z,15.27
2018-08-09T02:35:02.432Z,12.13
2018-08-09T02:37:30.811Z,14.30
2018-08-09T02:39:59.209Z,15.13
2018-08-09T02:42:27.583Z,14.90
2018-08-09T02:44:55.987Z,13.63
2018-08-09T02:47:24.365Z,15.90
2018-08-09T02:49:52.791Z,14.23
2018-08-09T02:52:21.165Z,13.70
2018-08-09T02:54:49.561Z,14.23
2018-08-09T02:57:17.937Z,12.83
2018-08-09T02:59:46.333Z,14.53
2018-08-09T03:02:14.718Z,16.27
2018-08-09T03:04:43.130Z,17.03
2018-08-09T03:07:11.509Z,15.97
2018-08-09T03:09:39.890Z,15.17
2018-08-09T03:12:08.336Z,16.93
2018-08-09T03:14:36.714Z,14.43
2018-08-09T03:17:05.116Z,15.30
2018-08-09T03:19:33.506Z,14.70
2018-08-09T03:22:01.898Z,15.57
2018-08-09T03:24:30.434Z,15.60
2018-08-09T03:26:58.734Z,14.90
2018-08-09T03:29:27.111Z,15.63
2018-08-09T03:31:55.507Z,15.47
2018-08-09T03:34:23.890Z,15.33
2018-08-09T03:36:52.295Z,17.90
2018-08-09T03:39:20.681Z,16.50
2018-08-09T03:41:49.082Z,16.47
2018-08-09T03:44:17.458Z,14.57
2018-08-09T03:46:45.858Z,15.10
2018-08-09T03:49:14.246Z,14.20
2018-08-09T03:51:42.647Z,15.40
2018-08-09T03:54:11.019Z,16.17
2018-08-09T03:56:39.419Z,16.60
2018-08-09T03:59:07.819Z,18.87
2018-08-09T04:01:36.205Z,15.47
2018-08-09T04:04:04.587Z,16.73
2018-08-09T04:06:32.993Z,15.63
2018-08-09T04:09:01.374Z,14.70
2018-08-09T04:11:29.777Z,15.87
2018-08-09T04:13:58.186Z,16.07
2018-08-09T04:16:26.587Z,14.30
2018-08-09T04:18:54.972Z,12.90
2018-08-09T04:21:23.372Z,13.73
2018-08-09T04:23:51.747Z,14.30
2018-08-09T04:26:20.211Z,14.93
2018-08-09T04:28:48.562Z,14.40
2018-08-09T04:31:17.003Z,13.50
2018-08-09T04:33:45.382Z,12.70
2018-08-09T04:36:13.786Z,14.73
2018-08-09T04:38:42.409Z,12.67
2018-08-09T04:41:10.811Z,14.80
2018-08-09T04:43:39.186Z,14.80
2018-08-09T04:46:07.839Z,13.63
2018-08-09T04:48:36.334Z,15.70
2018-08-09T04:51:04.742Z,15.87
2018-08-09T04:53:33.309Z,16.13
2018-08-09T04:56:01.710Z,13.03
2018-08-09T04:58:30.143Z,15.80
2018-08-09T05:00:58.509Z,14.53
2018-08-09T05:03:26.914Z,15.30
2018-08-09T05:05:55.288Z,15.77
2018-08-09T05:08:23.690Z,15.30
2018-08-09T05:10:52.070Z,14.73
2018-08-09T05:13:20.495Z,15.60
2018-08-09T05:15:48.909Z,14.80
2018-08-09T05:18:17.302Z,14.90
2018-08-09T05:20:45.686Z,15.77
2018-08-09T05:23:14.131Z,15.30
2018-08-09T05:25:42.493Z,15.40
2018-08-09T05:28:10.896Z,14.27
2018-08-09T05:30:39.270Z,16.97
2018-08-09T05:33:07.667Z,15.30
2018-08-09T05:35:37.704Z,16.87
2018-08-09T05:38:06.323Z,15.50
2018-08-09T05:40:34.701Z,15.50
2018-08-09T05:43:03.107Z,16.37
2018-08-09T05:45:31.487Z,15.27
2018-08-09T05:47:59.881Z,16.30
2018-08-09T05:50:28.256Z,17.77
2018-08-09T05:52:56.707Z,14.30
2018-08-09T05:55:25.082Z,14.60
2018-08-09T05:57:53.596Z,15.00
2018-08-09T06:00:21.975Z,15.77
2018-08-09T06:02:50.382Z,16.03
2018-08-09T06:05:18.778Z,16.90
2018-08-09T06:07:47.164Z,16.40
2018-08-09T06:10:15.533Z,14.37
2018-08-09T06:12:43.959Z,14.87
2018-08-09T06:15:12.346Z,16.20
2018-08-09T06:17:40.750Z,15.23
2018-08-09T06:20:09.134Z,14.57
2018-08-09T06:22:37.542Z,13.50
2018-08-09T06:25:06.736Z,14.73
2018-08-09T06:27:35.149Z,14.57
2018-08-09T06:30:03.870Z,14.40
2018-08-09T06:32:32.271Z,14.90
2018-08-09T06:35:00.649Z,13.90
2018-08-09T06:37:29.043Z,11.53
2018-08-09T06:39:57.418Z,11.10
2018-08-09T06:42:25.826Z,10.50
2018-08-09T06:44:54.207Z,10.73
2018-08-09T06:47:22.641Z,10.77
2018-08-09T06:49:51.055Z,10.07
2018-08-09T06:52:19.467Z,10.17
2018-08-09T06:54:47.835Z,8.80
2018-08-09T06:57:16.370Z,9.13
2018-08-09T06:59:44.751Z,10.20
2018-08-09T07:02:13.162Z,8.90
2018-08-09T07:04:41.537Z,7.30
2018-08-09T07:07:09.925Z,8.53
2018-08-09T07:09:38.342Z,9.00
2018-08-09T07:12:06.755Z,7.80
2018-08-09T07:14:35.153Z,9.90
2018-08-09T07:17:03.886Z,8.10
2018-08-09T07:19:32.279Z,7.80
2018-08-09T07:22:00.645Z,8.40
2018-08-09T07:24:29.249Z,8.50
2018-08-09T07:26:57.634Z,7.40
2018-08-09T07:29:26.104Z,8.17
2018-08-09T07:31:54.477Z,6.83
2018-08-09T07:34:22.873Z,7.80
2018-08-09T07:36:51.335Z,7.17
2018-08-09T07:39:19.781Z,6.90
2018-08-09T07:41:48.136Z,7.73
2018-08-09T07:44:16.533Z,8.60
2018-08-09T07:46:44.898Z,6.77
2018-08-09T07:49:13.299Z,7.13
2018-08-09T07:51:41.675Z,6.77
2018-08-09T07:54:10.078Z,7.40
2018-08-09T07:56:38.449Z,6.30
2018-08-09T07:59:06.904Z,7.40
2018-08-09T08:01:35.279Z,6.50
2018-08-09T08:04:03.667Z,6.80
2018-08-09T08:06:32.047Z,6.50
2018-08-09T08:09:00.452Z,7.30
2018-08-09T08:11:28.825Z,7.07
2018-08-09T08:13:57.241Z,6.33
2018-08-09T08:16:25.609Z,6.63
2018-08-09T08:18:54.063Z,7.10
2018-08-09T08:21:22.433Z,7.10
2018-08-09T08:23:50.829Z,7.40
2018-08-09T08:26:19.210Z,8.00
2018-08-09T08:28:47.602Z,5.83
2018-08-09T08:31:15.970Z,7.30
2018-08-09T08:33:44.374Z,6.70
2018-08-09T08:36:12.735Z,6.10
2018-08-09T08:38:41.130Z,5.93
2018-08-09T08:41:09.513Z,6.50
2018-08-09T08:43:37.959Z,6.97
2018-08-09T08:46:06.570Z,6.13
2018-08-09T08:48:35.028Z,6.53
2018-08-09T08:51:03.411Z,5.77
2018-08-09T08:53:31.810Z,7.20
2018-08-09T08:56:00.187Z,5.60
2018-08-09T08:58:28.599Z,6.17
2018-08-09T09:00:56.990Z,7.00
2018-08-09T09:03:25.403Z,5.90
2018-08-09T09:05:53.806Z,6.50
2018-08-09T09:08:22.193Z,6.30
2018-08-09T09:10:53.550Z,6.83
2018-08-09T09:13:22.110Z,7.17
2018-08-09T09:15:50.510Z,7.70
2018-08-09T09:18:18.934Z,6.57
2018-08-09T09:20:47.377Z,6.73
2018-08-09T09:23:15.761Z,7.30
2018-08-09T09:25:44.150Z,6.60
2018-08-09T09:28:12.527Z,7.80
2018-08-09T09:30:40.913Z,7.67
2018-08-09T09:33:09.287Z,7.40
2018-08-09T09:35:37.678Z,7.20
2018-08-09T09:38:06.222Z,6.73
2018-08-09T09:40:34.629Z,7.43
2018-08-09T09:43:03.008Z,7.23
2018-08-09T09:45:31.430Z,8.10
2018-08-09T09:47:59.804Z,7.40
2018-08-09T09:50:28.201Z,6.63
2018-08-09T09:52:56.566Z,7.03
2018-08-09T09:55:24.953Z,6.93
2018-08-09T09:57:53.314Z,6.60
2018-08-09T10:00:27.130Z,7.70
2018-08-09T10:02:55.505Z,7.50
2018-08-09T10:05:23.903Z,6.60
2018-08-09T10:07:52.272Z,7.77
2018-08-09T10:10:20.679Z,7.10
2018-08-09T10:12:49.141Z,7.83
2018-08-09T10:15:17.526Z,7.70
2018-08-09T10:17:45.895Z,7.87
2018-08-09T10:20:14.294Z,8.10
2018-08-09T10:22:42.662Z,7.20
2018-08-09T10:25:11.058Z,7.63
2018-08-09T10:27:39.454Z,8.60
2018-08-09T10:30:08.440Z,9.30
2018-08-09T10:32:36.935Z,8.93
2018-08-09T10:35:05.343Z,8.87
2018-08-09T10:37:34.055Z,9.63
2018-08-09T10:40:02.479Z,9.27
2018-08-09T10:42:30.849Z,8.10
2018-08-09T10:44:59.245Z,8.83
2018-08-09T10:47:27.621Z,8.77
2018-08-09T10:49:56.006Z,8.50
2018-08-09T10:52:24.386Z,8.00
2018-08-09T10:54:52.781Z,8.60
2018-08-09T10:57:21.174Z,6.80
2018-08-09T10:59:49.565Z,8.30
2018-08-09T11:02:17.945Z,8.53
2018-08-09T11:04:46.363Z,9.17
2018-08-09T11:07:14.739Z,8.23
2018-08-09T11:09:43.113Z,7.80
2018-08-09T11:12:11.789Z,7.70
2018-08-09T11:14:40.163Z,7.80
2018-08-09T11:17:08.558Z,8.10
2018-08-09T11:19:36.938Z,8.23
2018-08-09T11:22:05.335Z,8.53
2018-08-09T11:24:33.715Z,8.40
2018-08-09T11:27:02.128Z,6.90
2018-08-09T11:29:30.510Z,8.53
2018-08-09T11:31:58.930Z,7.50
2018-08-09T11:34:27.313Z,9.10
2018-08-09T11:36:55.714Z,8.20
2018-08-09T11:39:24.099Z,8.60
2018-08-09T11:41:52.510Z,9.50
2018-08-09T11:44:20.895Z,7.07
2018-08-09T11:46:49.294Z,7.47
2018-08-09T11:49:17.716Z,8.60
2018-08-09T11:51:46.126Z,7.53
2018-08-09T11:54:14.498Z,7.00
2018-08-09T11:56:42.990Z,8.53
2018-08-09T11:59:11.306Z,7.30
2018-08-09T12:01:39.791Z,7.10
2018-08-09T12:04:08.347Z,7.60
2018-08-09T12:06:36.746Z,6.17
2018-08-09T12:09:08.011Z,6.30
2018-08-09T12:11:36.787Z,8.00
2018-08-09T12:14:05.747Z,7.30
2018-08-09T12:16:34.195Z,8.27
2018-08-09T12:19:02.585Z,9.20
2018-08-09T12:21:31.030Z,7.60
2018-08-09T12:23:59.475Z,7.60
2018-08-09T12:26:27.879Z,7.17
2018-08-09T12:28:56.259Z,7.27
2018-08-09T12:31:24.939Z,9.17
2018-08-09T12:33:53.441Z,7.10
2018-08-09T12:36:21.863Z,7.23
2018-08-09T12:38:50.368Z,7.20
2018-08-09T12:41:18.779Z,8.57
2018-08-09T12:43:47.911Z,7.73
2018-08-09T12:46:16.309Z,7.93
2018-08-09T12:48:44.707Z,8.00
2018-08-09T12:51:13.147Z,8.13
2018-08-09T12:53:41.539Z,7.23
2018-08-09T12:56:09.942Z,7.67
2018-08-09T12:58:38.722Z,7.20
2018-08-09T13:01:07.143Z,7.40
2018-08-09T13:03:35.560Z,7.17
2018-08-09T13:06:04.127Z,8.20
2018-08-09T13:08:32.516Z,7.37
2018-08-09T13:11:00.929Z,8.17
2018-08-09T13:13:29.357Z,8.10
2018-08-09T13:15:57.743Z,7.50
2018-08-09T13:18:26.154Z,7.03
2018-08-09T13:20:54.538Z,8.50
2018-08-09T13:23:22.945Z,7.43
2018-08-09T13:25:51.354Z,7.30
2018-08-09T13:28:19.760Z,7.07
2018-08-09T13:30:48.145Z,7.67
2018-08-09T13:33:16.561Z,8.33
2018-08-09T13:35:44.942Z,7.73
2018-08-09T13:38:13.352Z,7.50
2018-08-09T13:40:41.738Z,7.87
2018-08-09T13:43:10.150Z,8.03
2018-08-09T13:45:38.562Z,8.00
2018-08-09T13:48:07.069Z,7.10
2018-08-09T13:50:35.485Z,7.53
2018-08-09T13:53:03.910Z,7.23
2018-08-09T13:55:32.293Z,7.90
2018-08-09T13:58:00.710Z,6.83
2018-08-09T14:00:29.090Z,6.97
2018-08-09T14:02:57.490Z,6.67
2018-08-09T14:05:25.898Z,7.80
2018-08-09T14:07:54.298Z,7.33
2018-08-09T14:10:22.691Z,7.10
2018-08-09T14:12:51.128Z,8.10
2018-08-09T14:15:19.521Z,10.43
2018-08-09T14:17:47.966Z,8.30
2018-08-09T14:20:17.477Z,8.10
2018-08-09T14:22:45.901Z,7.97
2018-08-09T14:25:14.558Z,8.80
2018-08-09T14:27:43.049Z,8.00
2018-08-09T14:30:13.525Z,7.60
2018-08-09T14:32:42.266Z,8.10
2018-08-09T14:35:13.006Z,7.13
2018-08-09T14:37:42.154Z,8.07
2018-08-09T14:40:11.275Z,8.27
2018-08-09T14:42:39.713Z,8.70
2018-08-09T14:45:10.803Z,8.77
2018-08-09T14:47:39.243Z,8.47
2018-08-09T14:50:07.649Z,9.10
2018-08-09T14:52:36.371Z,9.03
2018-08-09T14:55:06.295Z,9.40
2018-08-09T14:57:34.731Z,8.20
2018-08-09T15:00:03.378Z,8.83
2018-08-09T15:02:31.796Z,10.07
2018-08-09T15:05:00.919Z,9.13
2018-08-09T15:07:29.327Z,8.63
2018-08-09T15:09:57.713Z,9.00
2018-08-09T15:12:26.150Z,10.27
2018-08-09T15:14:54.538Z,8.80
2018-08-09T15:17:22.946Z,9.20
2018-08-09T15:19:51.330Z,10.03
2018-08-09T15:22:19.727Z,8.80
2018-08-09T15:24:48.135Z,8.97
2018-08-09T15:27:16.539Z,8.67
2018-08-09T15:29:44.939Z,8.23
2018-08-09T15:32:13.331Z,8.00
2018-08-09T15:34:41.737Z,9.00
2018-08-09T15:37:10.136Z,9.17
2018-08-09T15:39:38.551Z,8.57
2018-08-09T15:42:06.973Z,8.83
2018-08-09T15:44:35.396Z,9.10
2018-08-09T15:47:03.774Z,8.03
2018-08-09T15:49:32.207Z,8.80
2018-08-09T15:52:00.592Z,8.00
2018-08-09T15:54:28.981Z,8.07
2018-08-09T15:56:57.359Z,9.00
2018-08-09T15:59:25.762Z,8.57
2018-08-09T16:01:54.322Z,7.00
2018-08-09T16:04:22.722Z,9.30
2018-08-09T16:06:51.125Z,7.80
2018-08-09T16:09:19.530Z,8.13
2018-08-09T16:11:47.917Z,8.27
2018-08-09T16:14:16.345Z,9.37
2018-08-09T16:16:44.724Z,9.07
2018-08-09T16:19:13.132Z,8.63
2018-08-09T16:21:41.518Z,8.10
2018-08-09T16:24:09.954Z,8.87
2018-08-09T16:26:38.334Z,8.63
2018-08-09T16:29:06.988Z,7.70
2018-08-09T16:31:35.371Z,8.27
2018-08-09T16:34:03.805Z,8.70
2018-08-09T16:36:32.178Z,8.77
2018-08-09T16:39:00.619Z,9.40
2018-08-09T16:41:29.003Z,8.50
2018-08-09T16:43:57.396Z,8.53
2018-08-09T16:46:25.846Z,8.97
2018-08-09T16:48:54.307Z,9.03
2018-08-09T16:51:22.697Z,7.90
2018-08-09T16:53:51.098Z,8.47
2018-08-09T16:56:19.482Z,8.40
2018-08-09T16:58:47.913Z,8.50
2018-08-09T17:01:17.145Z,8.17
2018-08-09T17:03:45.566Z,7.30
2018-08-09T17:06:13.946Z,8.70
2018-08-09T17:08:42.349Z,8.47
2018-08-09T17:11:10.734Z,8.87
2018-08-09T17:13:39.160Z,8.97
2018-08-09T17:16:07.555Z,8.53
2018-08-09T17:18:35.988Z,8.27
2018-08-09T17:21:04.390Z,9.10
2018-08-09T17:23:32.766Z,8.80
2018-08-09T17:26:01.167Z,10.30
2018-08-09T17:28:29.558Z,8.67
2018-08-09T17:30:57.957Z,9.20
2018-08-09T17:33:26.330Z,9.80
2018-08-09T17:35:54.750Z,9.27
2018-08-09T17:38:23.135Z,9.67
2018-08-09T17:40:51.549Z,10.00
2018-08-09T17:43:20.036Z,8.87
2018-08-09T17:45:48.426Z,9.53
2018-08-09T17:48:16.843Z,9.33
2018-08-09T17:50:45.254Z,10.80
2018-08-09T17:53:13.634Z,9.73
2018-08-09T17:55:42.032Z,10.00
2018-08-09T17:58:10.437Z,10.50
2018-08-09T18:00:38.838Z,10.00
2018-08-09T18:03:07.225Z,9.57
2018-08-09T18:05:35.631Z,10.30
2018-08-09T18:08:04.010Z,10.70
2018-08-09T18:10:33.944Z,9.23
2018-08-09T18:13:02.362Z,10.60
2018-08-09T18:15:31.526Z,10.10
2018-08-09T18:18:00.599Z,10.73
2018-08-09T18:20:30.631Z,11.10
2018-08-09T18:22:59.337Z,10.10
2018-08-09T18:25:27.759Z,10.90
2018-08-09T18:27:56.145Z,10.90
2018-08-09T18:30:24.596Z,10.80
2018-08-09T18:32:53.020Z,10.80
2018-08-09T18:35:21.466Z,11.80
2018-08-09T18:37:49.849Z,12.07
2018-08-09T18:40:21.146Z,9.90
2018-08-09T18:42:49.591Z,12.33
2018-08-09T18:45:18.182Z,11.77
2018-08-09T18:47:46.594Z,12.00
2018-08-09T18:50:18.025Z,11.10
2018-08-09T18:52:46.442Z,12.40
2018-08-09T18:55:15.755Z,12.50
2018-08-09T18:57:44.150Z,12.17
2018-08-09T19:00:16.315Z,11.97
2018-08-09T19:02:45.438Z,11.70
2018-08-09T19:05:13.894Z,12.07
2018-08-09T19:07:42.450Z,13.10
2018-08-09T19:10:12.755Z,11.93
2018-08-09T19:12:41.415Z,12.43
2018-08-09T19:15:11.054Z,12.63
2018-08-09T19:17:39.815Z,13.30
2018-08-09T19:20:13.979Z,12.80
2018-08-09T19:22:42.370Z,13.40
2018-08-09T19:25:10.791Z,13.73
2018-08-09T19:27:39.182Z,13.13
2018-08-09T19:30:08.491Z,14.03
2018-08-09T19:32:37.217Z,12.13
2018-08-09T19:35:07.638Z,14.07
2018-08-09T19:37:36.041Z,12.13
2018-08-09T19:40:04.954Z,12.37
2018-08-09T19:42:33.375Z,12.23
2018-08-09T19:45:01.758Z,12.60
2018-08-09T19:47:30.203Z,11.90
2018-08-09T19:49:58.596Z,12.33
2018-08-09T19:52:27.010Z,13.63
2018-08-09T19:54:55.394Z,12.20
2018-08-09T19:57:23.802Z,13.30
2018-08-09T19:59:52.196Z,12.73
2018-08-09T20:02:20.702Z,11.30
2018-08-09T20:04:49.074Z,13.37
2018-08-09T20:07:17.479Z,12.57
2018-08-09T20:09:45.856Z,13.40
2018-08-09T20:12:14.274Z,13.83
2018-08-09T20:14:42.655Z,12.60
2018-08-09T20:17:11.220Z,12.80
2018-08-09T20:19:39.595Z,13.00
2018-08-09T20:22:14.079Z,12.73
2018-08-09T20:24:42.584Z,8.93
2018-08-09T20:27:11.079Z,8.70
2018-08-09T20:29:39.503Z,7.03
2018-08-09T20:32:07.886Z,7.90
2018-08-09T20:34:36.262Z,7.10
2018-08-09T20:37:04.653Z,7.27
2018-08-09T20:39:33.022Z,7.53
2018-08-09T20:42:01.547Z,7.10
2018-08-09T20:44:29.934Z,7.03
2018-08-09T20:46:58.353Z,7.10
2018-08-09T20:49:26.732Z,7.63
2018-08-09T20:51:55.227Z,7.63
2018-08-09T20:54:23.794Z,7.00
2018-08-09T20:56:52.195Z,5.43
2018-08-09T20:59:20.570Z,8.27
2018-08-09T21:01:48.976Z,7.03
2018-08-09T21:04:17.509Z,7.00
2018-08-09T21:06:45.897Z,7.57
2018-08-09T21:09:14.367Z,6.73
2018-08-09T21:11:43.175Z,7.03
2018-08-09T21:14:11.595Z,7.33
2018-08-09T21:16:40.004Z,8.30
2018-08-09T21:19:08.562Z,7.50
2018-08-09T21:21:37.006Z,7.37
2018-08-09T21:24:05.419Z,6.87
2018-08-09T21:26:33.816Z,6.30
2018-08-09T21:29:02.190Z,7.03
2018-08-09T21:31:30.595Z,6.53
2018-08-09T21:33:58.962Z,7.80
2018-08-09T21:36:27.363Z,6.33
2018-08-09T21:38:55.757Z,6.67
2018-08-09T21:41:24.182Z,7.47
2018-08-09T21:43:52.541Z,6.87
2018-08-09T21:46:20.905Z,7.90
2018-08-09T21:48:49.307Z,8.27
2018-08-09T21:51:17.741Z,7.30
2018-08-09T21:53:46.142Z,8.40
2018-08-09T21:56:14.515Z,8.67
2018-08-09T21:58:42.915Z,9.30
2018-08-09T22:01:12.767Z,8.50
2018-08-09T22:03:41.212Z,8.20
2018-08-09T22:06:15.043Z,8.23
2018-08-09T22:08:48.763Z,6.53
2018-08-09T22:11:22.422Z,8.17
2018-08-09T22:13:56.019Z,8.07
2018-08-09T22:16:29.705Z,7.57
2018-08-09T22:19:03.451Z,8.07
2018-08-09T22:22:10.808Z,8.40
2018-08-09T22:24:39.560Z,8.03
2018-08-09T22:27:08.578Z,8.23
2018-08-09T22:29:36.958Z,9.03
2018-08-09T22:32:05.391Z,8.03
2018-08-09T22:34:33.774Z,9.33
2018-08-09T22:37:02.176Z,8.87
2018-08-09T22:39:30.587Z,9.37
2018-08-09T22:41:58.957Z,9.53
2018-08-09T22:44:27.346Z,9.43
2018-08-09T22:46:55.719Z,8.20
2018-08-09T22:49:24.119Z,7.70
2018-08-09T22:51:52.484Z,7.53
2018-08-09T22:54:20.888Z,8.17
2018-08-09T22:56:49.282Z,7.57
2018-08-09T22:59:18.589Z,8.13
2018-08-09T23:01:47.009Z,8.30
2018-08-09T23:04:15.414Z,7.97
2018-08-09T23:06:43.807Z,9.07
2018-08-09T23:09:12.466Z,10.17
2018-08-09T23:11:41.015Z,8.10
2018-08-09T23:14:09.443Z,8.63
2018-08-09T23:16:37.849Z,8.83
2018-08-09T23:19:06.250Z,8.77
2018-08-09T23:21:34.637Z,9.60
2018-08-09T23:24:03.063Z,10.00
2018-08-09T23:26:31.442Z,9.37
2018-08-09T23:28:59.854Z,9.63
2018-08-09T23:31:28.226Z,10.00
2018-08-09T23:33:56.650Z,12.63
2018-08-09T23:36:25.030Z,10.23
2018-08-09T23:38:53.439Z,12.37
2018-08-09T23:41:21.819Z,11.50
2018-08-09T23:43:50.237Z,13.87
2018-08-09T23:46:18.622Z,11.83
2018-08-09T23:48:47.022Z,12.83
2018-08-09T23:51:15.402Z,13.50
2018-08-09T23:53:43.806Z,12.60
2018-08-09T23:56:12.187Z,13.63
2018-08-09T23:58:40.602Z,13.23
